createdAt,value
2019-06-26T00:00:05.171Z,20.83
2019-06-26T00:11:06.413Z,20.69
2019-06-26T00:22:06.391Z,20.57
2019-06-26T00:33:09.032Z,20.42
2019-06-26T00:44:08.885Z,20.35
2019-06-26T00:55:08.249Z,20.28
2019-06-26T01:06:01.538Z,20.24
2019-06-26T01:17:01.440Z,20.18
2019-06-26T01:28:02.602Z,20.16
2019-06-26T01:39:03.293Z,20.06
2019-06-26T01:50:04.027Z,20.06
2019-06-26T02:01:05.786Z,19.86
2019-06-26T02:12:06.187Z,19.87
2019-06-26T02:23:07.222Z,19.78
2019-06-26T02:34:09.124Z,19.68
2019-06-26T02:45:06.156Z,19.57
2019-06-26T02:56:06.100Z,19.48
2019-06-26T03:07:07.806Z,19.43
2019-06-26T03:18:08.307Z,19.32
2019-06-26T03:29:10.358Z,19.32
2019-06-26T03:40:12.376Z,19.38
2019-06-26T03:51:14.088Z,19.48
2019-06-26T04:02:17.868Z,19.60
2019-06-26T04:13:19.178Z,19.88
2019-06-26T04:24:09.582Z,20.16
2019-06-26T04:35:05.639Z,20.19
2019-06-26T04:45:58.086Z,20.35
2019-06-26T04:56:52.879Z,20.54
2019-06-26T05:07:49.173Z,20.94
2019-06-26T05:18:45.819Z,21.33
2019-06-26T05:29:42.060Z,21.49
2019-06-26T05:40:38.374Z,22.01
2019-06-26T05:51:35.659Z,22.32
2019-06-26T06:02:34.899Z,22.78
2019-06-26T06:13:29.704Z,23.53
2019-06-26T06:24:21.852Z,23.65
2019-06-26T06:35:08.009Z,24.15
2019-06-26T06:46:03.227Z,24.52
2019-06-26T06:57:01.587Z,24.75
2019-06-26T07:07:53.950Z,25.50
2019-06-26T07:18:35.041Z,25.87
2019-06-26T07:29:17.508Z,25.99
2019-06-26T07:40:01.468Z,26.50
2019-06-26T07:51:01.106Z,26.80
2019-06-26T08:01:58.291Z,26.64
2019-06-26T08:12:58.468Z,27.01
2019-06-26T08:23:59.483Z,27.21
2019-06-26T08:35:02.093Z,27.12
2019-06-26T08:46:02.674Z,27.57
2019-06-26T08:57:03.244Z,28.28
2019-06-26T09:08:03.412Z,28.24
2019-06-26T09:19:01.946Z,28.43
2019-06-26T09:30:03.375Z,28.63
2019-06-26T09:41:05.280Z,28.69
2019-06-26T09:52:05.635Z,28.93
2019-06-26T10:03:06.249Z,29.31
2019-06-26T10:14:06.677Z,29.41
2019-06-26T10:25:05.571Z,29.81
2019-06-26T10:36:09.321Z,30.24
2019-06-26T10:47:07.816Z,30.70
2019-06-26T10:58:10.534Z,31.02
2019-06-26T11:09:14.572Z,31.84
2019-06-26T11:20:14.793Z,32.16
2019-06-26T11:31:16.704Z,32.65
2019-06-26T11:42:17.349Z,34.64
2019-06-26T11:53:17.813Z,35.20
2019-06-26T12:04:19.290Z,37.44
2019-06-26T12:15:19.237Z,36.60
2019-06-26T12:26:20.108Z,37.13
2019-06-26T12:37:36.594Z,36.26
2019-06-26T12:48:27.702Z,36.76
2019-06-26T12:59:29.079Z,37.03
2019-06-26T13:10:29.804Z,38.25
2019-06-26T13:21:27.380Z,37.49
2019-06-26T13:32:21.938Z,37.82
2019-06-26T13:43:22.183Z,38.10
2019-06-26T13:54:17.943Z,36.76
2019-06-26T14:05:18.470Z,38.43
2019-06-26T14:16:15.325Z,37.27
2019-06-26T14:27:11.211Z,37.77
2019-06-26T14:38:10.645Z,38.48
2019-06-26T14:49:05.360Z,37.55
2019-06-26T15:00:07.214Z,35.97
2019-06-26T15:11:05.082Z,35.43
2019-06-26T15:22:01.953Z,33.92
2019-06-26T15:33:01.205Z,33.42
2019-06-26T15:44:01.689Z,32.76
2019-06-26T15:55:00.912Z,32.45
2019-06-26T16:06:02.069Z,31.87
2019-06-26T16:16:59.782Z,31.52
2019-06-26T16:28:05.772Z,30.83
2019-06-26T16:39:05.025Z,30.19
2019-06-26T16:50:03.538Z,30.12
2019-06-26T17:01:04.778Z,29.63
2019-06-26T17:11:59.569Z,30.30
2019-06-26T17:23:05.482Z,29.59
2019-06-26T17:34:00.902Z,29.46
2019-06-26T17:45:00.048Z,29.28
2019-06-26T17:56:00.311Z,28.86
2019-06-26T18:06:45.662Z,28.36
2019-06-26T18:17:43.010Z,28.02
2019-06-26T18:28:44.184Z,27.67
2019-06-26T18:39:46.343Z,27.32
2019-06-26T18:50:38.380Z,26.99
2019-06-26T19:01:36.031Z,26.69
2019-06-26T19:12:29.699Z,26.38
2019-06-26T19:23:27.684Z,26.05
2019-06-26T19:34:27.927Z,25.75
2019-06-26T19:45:26.546Z,25.50
2019-06-26T19:56:22.992Z,25.00
2019-06-26T20:07:19.508Z,24.83
2019-06-26T20:18:12.735Z,24.44
2019-06-26T20:29:11.401Z,24.27
2019-06-26T20:40:08.256Z,24.01
2019-06-26T20:51:04.934Z,23.83
2019-06-26T21:02:01.669Z,23.64
2019-06-26T21:12:54.398Z,23.46
2019-06-26T21:23:53.008Z,23.33
2019-06-26T21:34:50.899Z,23.26
2019-06-26T21:45:44.909Z,23.08
2019-06-26T21:56:43.502Z,22.97
2019-06-26T22:07:42.293Z,22.81
2019-06-26T22:18:39.026Z,22.83
2019-06-26T22:29:33.059Z,22.77
2019-06-26T22:40:34.116Z,22.65
2019-06-26T22:51:33.134Z,22.62
2019-06-26T23:02:28.397Z,22.46
2019-06-26T23:13:27.197Z,22.32
2019-06-26T23:24:23.962Z,22.24
2019-06-26T23:35:25.348Z,22.17
2019-06-26T23:46:24.268Z,22.01
2019-06-26T23:57:23.748Z,21.94
